
Distance (Route):
Temperature : 21.9°C
Humidity : 39.9%
Pressure : 0hPa| Receiver | Frames | First received | Last received |
|---|---|---|---|
| LZ4TU-5 | 191 | 2026-09-05 05:17:22 | 2026-09-05 06:59:01 |
| Receiver | Date | Latitude | Longitude | Direction | Speed | Altitude | Climb | Temperature | Humidity | Pressure | Voltage | Killtimer | Uptime | BKT | XDATA |
|---|---|---|---|---|---|---|---|---|---|---|---|---|---|---|---|
| LZ4TU-5 | 2026-09-05 06:59:01 | 44.08464 | 22.87565 | 105° | 11km/h | 983m | -14.1m/s | 21.9°C | 39.9% | 0hPa | 0V | 00:00:00 | 00:00:00 | 00:00:00 | |
| LZ4TU-5 | 2026-09-05 06:58:53 | 44.08469 | 22.87536 | 91° | 9km/h | 1096m | -14.2m/s | 21.1°C | 40.8% | 0hPa | 0V | 00:00:00 | 00:00:00 | 00:00:00 | |
| LZ4TU-5 | 2026-09-05 06:58:49 | 44.08468 | 22.87523 | 82° | 9km/h | 1156m | -14.2m/s | 20.6°C | 41.9% | 0hPa | 0V | 00:00:00 | 00:00:00 | 00:00:00 | |
| LZ4TU-5 | 2026-09-05 06:58:45 | 44.08466 | 22.87510 | 81° | 9km/h | 1215m | -14.2m/s | 20.1°C | 43.4% | 0hPa | 0V | 00:00:00 | 00:00:00 | 00:00:00 | |
| LZ4TU-5 | 2026-09-05 06:58:40 | 44.08464 | 22.87493 | 83° | 9km/h | 1280m | -14.2m/s | 19.5°C | 43.9% | 0hPa | 0V | 00:00:00 | 00:00:00 | 00:00:00 | |
| LZ4TU-5 | 2026-09-05 06:58:35 | 44.08464 | 22.87478 | 92° | 9km/h | 1355m | -14.2m/s | 19.0°C | 43.0% | 0hPa | 0V | 00:00:00 | 00:00:00 | 00:00:00 | |
| LZ4TU-5 | 2026-09-05 06:58:31 | 44.08465 | 22.87466 | 109° | 9km/h | 1414m | -13.9m/s | 18.7°C | 42.0% | 0hPa | 0V | 00:00:00 | 00:00:00 | 00:00:00 | |
| LZ4TU-5 | 2026-09-05 06:58:26 | 44.08467 | 22.87450 | 119° | 9km/h | 1484m | -14.1m/s | 18.6°C | 38.9% | 0hPa | 0V | 00:00:00 | 00:00:00 | 00:00:00 | |
| LZ4TU-5 | 2026-09-05 06:58:22 | 44.08473 | 22.87436 | 116° | 11km/h | 1536m | -14.1m/s | 18.4°C | 36.6% | 0hPa | 0V | 00:00:00 | 00:00:00 | 00:00:00 | |
| LZ4TU-5 | 2026-09-05 06:58:17 | 44.08479 | 22.87418 | 114° | 13km/h | 1611m | -14.2m/s | 18.4°C | 30.1% | 0hPa | 0V | 00:00:00 | 00:00:00 | 00:00:00 | |
| LZ4TU-5 | 2026-09-05 06:58:12 | 44.08484 | 22.87398 | 115° | 13km/h | 1684m | -14.3m/s | 18.0°C | 28.2% | 0hPa | 0V | 00:00:00 | 00:00:00 | 00:00:00 | |
| LZ4TU-5 | 2026-09-05 06:58:07 | 44.08492 | 22.87377 | 132° | 15km/h | 1748m | -14.4m/s | 17.5°C | 28.6% | 0hPa | 0V | 00:00:00 | 00:00:00 | 00:00:00 | |
| LZ4TU-5 | 2026-09-05 06:58:02 | 44.08508 | 22.87356 | 146° | 20km/h | 1822m | -14.1m/s | 17.9°C | 19.9% | 0hPa | 0V | 00:00:00 | 00:00:00 | 00:00:00 | |
| LZ4TU-5 | 2026-09-05 06:57:57 | 44.08530 | 22.87339 | 157° | 22km/h | 1895m | -14.1m/s | 18.0°C | 18.3% | 0hPa | 0V | 00:00:00 | 00:00:00 | 00:00:00 | |
| LZ4TU-5 | 2026-09-05 06:57:53 | 44.08552 | 22.87328 | 159° | 22km/h | 1952m | -14.1m/s | 17.8°C | 17.7% | 0hPa | 0V | 00:00:00 | 00:00:00 | 00:00:00 | |
| LZ4TU-5 | 2026-09-05 06:57:48 | 44.08578 | 22.87311 | 159° | 24km/h | 2016m | -14.2m/s | 17.4°C | 14.6% | 0hPa | 0V | 00:00:00 | 00:00:00 | 00:00:00 | |
| LZ4TU-5 | 2026-09-05 06:57:44 | 44.08601 | 22.87299 | 162° | 26km/h | 2075m | -14.2m/s | 17.0°C | 14.4% | 0hPa | 0V | 00:00:00 | 00:00:00 | 00:00:00 | |
| LZ4TU-5 | 2026-09-05 06:57:39 | 44.08632 | 22.87286 | 162° | 26km/h | 2149m | -14.4m/s | 16.9°C | 13.9% | 0hPa | 0V | 00:00:00 | 00:00:00 | 00:00:00 | |
| LZ4TU-5 | 2026-09-05 06:57:34 | 44.08661 | 22.87270 | 154° | 24km/h | 2224m | -14.6m/s | 16.5°C | 22.4% | 0hPa | 0V | 00:00:00 | 00:00:00 | 00:00:00 | |
| LZ4TU-5 | 2026-09-05 06:57:29 | 44.08689 | 22.87249 | 149° | 26km/h | 2290m | -14.9m/s | 15.9°C | 33.5% | 0hPa | 0V | 00:00:00 | 00:00:00 | 00:00:00 | |
| LZ4TU-5 | 2026-09-05 06:57:25 | 44.08709 | 22.87229 | 144° | 26km/h | 2352m | -15.2m/s | 15.6°C | 33.0% | 0hPa | 0V | 00:00:00 | 00:00:00 | 00:00:00 | |
| LZ4TU-5 | 2026-09-05 06:57:20 | 44.08735 | 22.87199 | 140° | 27km/h | 2431m | -15.2m/s | 15.0°C | 33.0% | 0hPa | 0V | 00:00:00 | 00:00:00 | 00:00:00 | |
| LZ4TU-5 | 2026-09-05 06:57:16 | 44.08757 | 22.87173 | 133° | 27km/h | 2494m | -15.2m/s | 14.6°C | 31.7% | 0hPa | 0V | 00:00:00 | 00:00:00 | 00:00:00 | |
| LZ4TU-5 | 2026-09-05 06:57:12 | 44.08775 | 22.87142 | 126° | 27km/h | 2544m | -15.4m/s | 14.5°C | 27.6% | 0hPa | 0V | 00:00:00 | 00:00:00 | 00:00:00 | |
| LZ4TU-5 | 2026-09-05 06:57:02 | 44.08814 | 22.87069 | 135° | 26km/h | 2694m | -15.3m/s | 13.4°C | 32.3% | 0hPa | 0V | 00:00:00 | 00:00:00 | 00:00:00 | |
| LZ4TU-5 | 2026-09-05 06:56:58 | 44.08832 | 22.87043 | 140° | 26km/h | 2751m | -15.3m/s | 13.1°C | 29.9% | 0hPa | 0V | 00:00:00 | 00:00:00 | 00:00:00 | |
| LZ4TU-5 | 2026-09-05 06:56:53 | 44.08858 | 22.87014 | 142° | 26km/h | 2829m | -15.1m/s | 13.0°C | 23.7% | 0hPa | 0V | 00:00:00 | 00:00:00 | 00:00:00 | |
| LZ4TU-5 | 2026-09-05 06:56:49 | 44.08877 | 22.86990 | 137° | 26km/h | 2888m | -15.4m/s | 12.6°C | 28.6% | 0hPa | 0V | 00:00:00 | 00:00:00 | 00:00:00 | |
| LZ4TU-5 | 2026-09-05 06:56:44 | 44.08901 | 22.86961 | 138° | 22km/h | 2959m | -15.2m/s | 12.2°C | 30.6% | 0hPa | 0V | 00:00:00 | 00:00:00 | 00:00:00 | |
| LZ4TU-5 | 2026-09-05 06:56:39 | 44.08923 | 22.86935 | 139° | 22km/h | 3041m | -15.2m/s | 11.7°C | 32.7% | 0hPa | 0V | 00:00:00 | 00:00:00 | 00:00:00 | |
| LZ4TU-5 | 2026-09-05 06:56:34 | 44.08943 | 22.86910 | 138° | 22km/h | 3124m | -15.0m/s | 11.0°C | 36.9% | 0hPa | 0V | 00:00:00 | 00:00:00 | 00:00:00 | |
| LZ4TU-5 | 2026-09-05 06:56:30 | 44.08960 | 22.86889 | 134° | 22km/h | 3191m | -15.4m/s | 10.4°C | 40.2% | 0hPa | 0V | 00:00:00 | 00:00:00 | 00:00:00 | |
| LZ4TU-5 | 2026-09-05 06:56:25 | 44.08980 | 22.86862 | 134° | 22km/h | 3277m | -15.2m/s | 9.6°C | 43.7% | 0hPa | 0V | 00:00:00 | 00:00:00 | 00:00:00 | |
| LZ4TU-5 | 2026-09-05 06:56:21 | 44.08995 | 22.86840 | 132° | 20km/h | 3345m | -15.5m/s | 9.0°C | 46.8% | 0hPa | 0V | 00:00:00 | 00:00:00 | 00:00:00 | |
| LZ4TU-5 | 2026-09-05 06:56:16 | 44.09011 | 22.86818 | 138° | 20km/h | 3434m | -15.6m/s | 8.5°C | 43.9% | 0hPa | 0V | 00:00:00 | 00:00:00 | 00:00:00 | |
| LZ4TU-5 | 2026-09-05 06:56:11 | 44.09030 | 22.86797 | 138° | 16km/h | 3502m | -15.5m/s | 8.0°C | 40.9% | 0hPa | 0V | 00:00:00 | 00:00:00 | 00:00:00 | |
| LZ4TU-5 | 2026-09-05 06:56:07 | 44.09042 | 22.86780 | 138° | 16km/h | 3566m | -15.6m/s | 7.5°C | 43.6% | 0hPa | 0V | 00:00:00 | 00:00:00 | 00:00:00 | |
| LZ4TU-5 | 2026-09-05 06:56:02 | 44.09055 | 22.86762 | 130° | 16km/h | 3650m | -15.9m/s | 6.8°C | 44.4% | 0hPa | 0V | 00:00:00 | 00:00:00 | 00:00:00 | |
| LZ4TU-5 | 2026-09-05 06:55:57 | 44.09068 | 22.86745 | 144° | 16km/h | 3733m | -15.7m/s | 6.3°C | 44.6% | 0hPa | 0V | 00:00:00 | 00:00:00 | 00:00:00 | |
| LZ4TU-5 | 2026-09-05 06:55:52 | 44.09082 | 22.86728 | 142° | 15km/h | 3812m | -15.6m/s | 5.9°C | 42.7% | 0hPa | 0V | 00:00:00 | 00:00:00 | 00:00:00 | |
| LZ4TU-5 | 2026-09-05 06:55:47 | 44.09096 | 22.86712 | 149° | 15km/h | 3888m | -15.6m/s | 5.3°C | 40.9% | 0hPa | 0V | 00:00:00 | 00:00:00 | 00:00:00 | |
| LZ4TU-5 | 2026-09-05 06:55:42 | 44.09111 | 22.86703 | 164° | 11km/h | 3970m | -15.9m/s | 5.0°C | 33.5% | 0hPa | 0V | 00:00:00 | 00:00:00 | 00:00:00 | |
| LZ4TU-5 | 2026-09-05 06:55:37 | 44.09124 | 22.86699 | 178° | 13km/h | 4046m | -15.9m/s | 4.5°C | 33.2% | 0hPa | 0V | 00:00:00 | 00:00:00 | 00:00:00 | |
| LZ4TU-5 | 2026-09-05 06:55:32 | 44.09142 | 22.86695 | 178° | 16km/h | 4122m | -16.0m/s | 3.9°C | 33.5% | 0hPa | 0V | 00:00:00 | 00:00:00 | 00:00:00 | |
| LZ4TU-5 | 2026-09-05 06:54:10 | 44.09626 | 22.86635 | 168° | 24km/h | 5478m | -17.0m/s | -7.0°C | 42.6% | 0hPa | 0V | 00:00:00 | 00:00:00 | 00:00:00 | |
| LZ4TU-5 | 2026-09-05 06:54:06 | 44.09650 | 22.86629 | 169° | 24km/h | 5551m | -17.1m/s | -7.6°C | 44.5% | 0hPa | 0V | 00:00:00 | 00:00:00 | 00:00:00 | |
| LZ4TU-5 | 2026-09-05 06:52:47 | 44.10145 | 22.86175 | 132° | 37km/h | 6925m | -18.0m/s | -13.9°C | 9.9% | 0hPa | 0V | 00:00:00 | 00:00:00 | 00:00:00 | |
| LZ4TU-5 | 2026-09-05 06:52:43 | 44.10168 | 22.86134 | 127° | 37km/h | 6994m | -18.3m/s | -14.4°C | 0% | 0hPa | 0V | 00:00:00 | 00:00:00 | 00:00:00 | |
| LZ4TU-5 | 2026-09-05 06:51:16 | 44.10642 | 22.85330 | 134° | 37km/h | 8591m | -17.6m/s | -27.2°C | 14.9% | 0hPa | 0V | 00:00:00 | 00:00:00 | 00:00:00 | |
| LZ4TU-5 | 2026-09-05 06:51:11 | 44.10677 | 22.85284 | 140° | 40km/h | 8681m | -17.5m/s | -27.6°C | 13.8% | 0hPa | 0V | 00:00:00 | 00:00:00 | 00:00:00 | |
| LZ4TU-5 | 2026-09-05 06:49:48 | 44.11114 | 22.84420 | 121° | 42km/h | 10206m | -20.7m/s | -38.5°C | 16.8% | 0hPa | 0V | 00:00:00 | 00:00:00 | 00:00:00 | |
| LZ4TU-5 | 2026-09-05 06:49:43 | 44.11140 | 22.84356 | 119° | 42km/h | 10304m | -20.8m/s | -39.4°C | 17.7% | 0hPa | 0V | 00:00:00 | 00:00:00 | 00:00:00 | |
| LZ4TU-5 | 2026-09-05 06:47:54 | 44.11732 | 22.82989 | 131° | 44km/h | 12885m | -25.7m/s | -59.9°C | 19.0% | 0hPa | 0V | 00:00:00 | 00:00:00 | 00:00:00 | |
| LZ4TU-5 | 2026-09-05 06:47:49 | 44.11768 | 22.82929 | 134° | 44km/h | 13004m | -26.0m/s | -60.9°C | 16.7% | 0hPa | 0V | 00:00:00 | 00:00:00 | 00:00:00 | |
| LZ4TU-5 | 2026-09-05 06:46:29 | 44.12132 | 22.81915 | 100° | 18km/h | 15220m | -30.7m/s | -60.9°C | 0.0% | 0hPa | 0V | 00:00:00 | 00:00:00 | 00:00:00 | |
| LZ4TU-5 | 2026-09-05 06:46:25 | 44.12135 | 22.81883 | 97° | 27km/h | 15345m | -30.9m/s | -61.0°C | 0% | 0hPa | 0V | 00:00:00 | 00:00:00 | 00:00:00 | |
| LZ4TU-5 | 2026-09-05 06:44:58 | 44.12148 | 22.80806 | 107° | 22km/h | 18378m | -39.3m/s | -58.3°C | 0.0% | 0hPa | 0V | 00:00:00 | 00:00:00 | 00:00:00 | |
| LZ4TU-5 | 2026-09-05 06:44:53 | 44.12151 | 22.80774 | 69° | 13km/h | 18577m | -39.5m/s | -58.0°C | 0.0% | 0hPa | 0V | 00:00:00 | 00:00:00 | 00:00:00 | |
| LZ4TU-5 | 2026-09-05 06:43:32 | 44.12060 | 22.80552 | 54° | 5km/h | 22218m | -51.0m/s | -53.8°C | 0.0% | 0hPa | 0V | 00:00:00 | 00:00:00 | 00:00:00 | |
| LZ4TU-5 | 2026-09-05 06:43:27 | 44.12054 | 22.80554 | 322° | 9km/h | 22481m | -51.6m/s | -54.3°C | 0.0% | 0hPa | 0V | 00:00:00 | 00:00:00 | 00:00:00 | |
| LZ4TU-5 | 2026-09-05 06:43:17 | 44.12032 | 22.80561 | 294° | 2km/h | 23004m | -53.7m/s | -52.4°C | 0.0% | 0hPa | 0V | 00:00:00 | 00:00:00 | 00:00:00 | |
| LZ4TU-5 | 2026-09-05 06:43:00 | 44.12015 | 22.80560 | 185° | 4km/h | 23954m | -58.0m/s | -49.8°C | 0.0% | 0hPa | 0V | 00:00:00 | 00:00:00 | 00:00:00 | |
| LZ4TU-5 | 2026-09-05 06:41:39 | 44.11911 | 22.80604 | 356° | 13km/h | 29143m | -72.7m/s | -42.2°C | 0.0% | 0hPa | 0V | 00:00:00 | 00:00:00 | 00:00:00 | |
| LZ4TU-5 | 2026-09-05 06:41:35 | 44.11899 | 22.80606 | 4° | 11km/h | 29431m | -71.0m/s | -42.4°C | 0.0% | 0hPa | 0V | 00:00:00 | 00:00:00 | 00:00:00 | |
| LZ4TU-5 | 2026-09-05 06:40:17 | 44.11805 | 22.80478 | 73° | 11km/h | 31123m | 4.1m/s | -41.4°C | 0.5% | 0hPa | 0V | 00:00:00 | 00:00:00 | 00:00:00 | |
| LZ4TU-5 | 2026-09-05 06:40:12 | 44.11828 | 22.80490 | 185° | 31km/h | 31090m | 2.7m/s | -41.4°C | 0.5% | 0hPa | 0V | 00:00:00 | 00:00:00 | 00:00:00 | |
| LZ4TU-5 | 2026-09-05 06:38:51 | 44.11790 | 22.80127 | 66° | 29km/h | 30520m | 7.4m/s | -41.9°C | 0.5% | 0hPa | 0V | 00:00:00 | 00:00:00 | 00:00:00 | |
| LZ4TU-5 | 2026-09-05 06:38:46 | 44.11772 | 22.80109 | 336° | 26km/h | 30483m | 7.4m/s | -42.0°C | 0.5% | 0hPa | 0V | 00:00:00 | 00:00:00 | 00:00:00 | |
| LZ4TU-5 | 2026-09-05 06:37:26 | 44.11457 | 22.80098 | 18° | 22km/h | 29887m | 8.2m/s | -42.7°C | 0.5% | 0hPa | 0V | 00:00:00 | 00:00:00 | 00:00:00 | |
| LZ4TU-5 | 2026-09-05 06:37:21 | 44.11442 | 22.80080 | 93° | 16km/h | 29848m | 9.3m/s | -43.1°C | 0.5% | 0hPa | 0V | 00:00:00 | 00:00:00 | 00:00:00 | |
| LZ4TU-5 | 2026-09-05 06:36:01 | 44.11283 | 22.80088 | 22° | 18km/h | 29240m | 7.8m/s | -42.9°C | 0.4% | 0hPa | 0V | 00:00:00 | 00:00:00 | 00:00:00 | |
| LZ4TU-5 | 2026-09-05 06:35:56 | 44.11269 | 22.80094 | 232° | 9km/h | 29203m | 7.1m/s | -43.0°C | 0.4% | 0hPa | 0V | 00:00:00 | 00:00:00 | 00:00:00 | |
| LZ4TU-5 | 2026-09-05 06:34:27 | 44.11038 | 22.80190 | 295° | 18km/h | 28592m | 8.9m/s | -43.9°C | 0.1% | 0hPa | 0V | 00:00:00 | 00:00:00 | 00:00:00 | |
| LZ4TU-5 | 2026-09-05 06:34:23 | 44.11027 | 22.80204 | 16° | 13km/h | 28566m | 6.3m/s | -44.0°C | 0.1% | 0hPa | 0V | 00:00:00 | 00:00:00 | 00:00:00 | |
| LZ4TU-5 | 2026-09-05 06:33:02 | 44.10835 | 22.80290 | 4° | 26km/h | 28010m | 7.2m/s | -46.3°C | 0.2% | 0hPa | 0V | 00:00:00 | 00:00:00 | 00:00:00 | |
| LZ4TU-5 | 2026-09-05 06:32:58 | 44.10815 | 22.80310 | 286° | 16km/h | 27982m | 5.4m/s | -46.3°C | 0.2% | 0hPa | 0V | 00:00:00 | 00:00:00 | 00:00:00 | |
| LZ4TU-5 | 2026-09-05 06:31:36 | 44.10493 | 22.80397 | 313° | 15km/h | 27409m | 4.8m/s | -47.4°C | 0.0% | 0hPa | 0V | 00:00:00 | 00:00:00 | 00:00:00 | |
| LZ4TU-5 | 2026-09-05 06:31:32 | 44.10480 | 22.80412 | 344° | 18km/h | 27380m | 6.1m/s | -47.6°C | 0.0% | 0hPa | 0V | 00:00:00 | 00:00:00 | 00:00:00 | |
| LZ4TU-5 | 2026-09-05 06:31:28 | 44.10475 | 22.80423 | 264° | 13km/h | 27354m | 4.3m/s | -47.6°C | 0.0% | 0hPa | 0V | 00:00:00 | 00:00:00 | 00:00:00 | |
| LZ4TU-5 | 2026-09-05 06:31:23 | 44.10460 | 22.80422 | 34° | 11km/h | 27316m | 8.9m/s | -47.6°C | 0% | 0hPa | 0V | 00:00:00 | 00:00:00 | 00:00:00 | |
| LZ4TU-5 | 2026-09-05 06:29:58 | 44.10333 | 22.80512 | 195° | 20km/h | 26750m | 7.6m/s | -49.3°C | 0.0% | 0hPa | 0V | 00:00:00 | 00:00:00 | 00:00:00 | |
| LZ4TU-5 | 2026-09-05 06:29:54 | 44.10347 | 22.80517 | 97° | 9km/h | 26725m | 5.8m/s | -49.4°C | 0.0% | 0hPa | 0V | 00:00:00 | 00:00:00 | 00:00:00 | |
| LZ4TU-5 | 2026-09-05 06:29:49 | 44.10353 | 22.80507 | 182° | 15km/h | 26693m | 7.7m/s | -49.6°C | 0.0% | 0hPa | 0V | 00:00:00 | 00:00:00 | 00:00:00 | |
| LZ4TU-5 | 2026-09-05 06:28:29 | 44.10353 | 22.80578 | 159° | 7km/h | 26166m | 6.6m/s | -49.4°C | 0.0% | 0hPa | 0V | 00:00:00 | 00:00:00 | 00:00:00 | |
| LZ4TU-5 | 2026-09-05 06:28:24 | 44.10353 | 22.80567 | 108° | 15km/h | 26131m | 6.5m/s | -49.4°C | 0.0% | 0hPa | 0V | 00:00:00 | 00:00:00 | 00:00:00 | |
| LZ4TU-5 | 2026-09-05 06:26:54 | 44.10318 | 22.80886 | 310° | 5km/h | 25520m | 9.0m/s | -49.4°C | 0.0% | 0hPa | 0V | 00:00:00 | 00:00:00 | 00:00:00 | |
| LZ4TU-5 | 2026-09-05 06:25:35 | 44.10479 | 22.80759 | 128° | 24km/h | 24987m | 4.5m/s | -49.4°C | 0.0% | 0hPa | 0V | 00:00:00 | 00:00:00 | 00:00:00 | |
| LZ4TU-5 | 2026-09-05 06:25:30 | 44.10490 | 22.80759 | 296° | 11km/h | 24951m | 6.7m/s | -49.4°C | 0.0% | 0hPa | 0V | 00:00:00 | 00:00:00 | 00:00:00 | |
| LZ4TU-5 | 2026-09-05 06:24:05 | 44.10500 | 22.80786 | 299° | 20km/h | 24389m | 6.4m/s | -50.4°C | 0.0% | 0hPa | 0V | 00:00:00 | 00:00:00 | 00:00:00 | |
| LZ4TU-5 | 2026-09-05 06:22:45 | 44.10522 | 22.80747 | 328° | 26km/h | 23869m | 7.0m/s | -52.0°C | 0.0% | 0hPa | 0V | 00:00:00 | 00:00:00 | 00:00:00 | |
| LZ4TU-5 | 2026-09-05 06:22:40 | 44.10513 | 22.80750 | 151° | 13km/h | 23839m | 6.4m/s | -52.1°C | 0.0% | 0hPa | 0V | 00:00:00 | 00:00:00 | 00:00:00 | |
| LZ4TU-5 | 2026-09-05 06:21:20 | 44.10222 | 22.80761 | 318° | 16km/h | 23328m | 4.5m/s | -53.2°C | 0.0% | 0hPa | 0V | 00:00:00 | 00:00:00 | 00:00:00 | |
| LZ4TU-5 | 2026-09-05 06:21:15 | 44.10210 | 22.80779 | 315° | 16km/h | 23294m | 7.8m/s | -53.1°C | 0.0% | 0hPa | 0V | 00:00:00 | 00:00:00 | 00:00:00 | |
| LZ4TU-5 | 2026-09-05 06:19:54 | 44.10148 | 22.80819 | 341° | 29km/h | 22782m | 6.7m/s | -53.8°C | 0.0% | 0hPa | 0V | 00:00:00 | 00:00:00 | 00:00:00 | |
| LZ4TU-5 | 2026-09-05 06:19:49 | 44.10127 | 22.80814 | 87° | 18km/h | 22754m | 5.8m/s | -54.2°C | 0.0% | 0hPa | 0V | 00:00:00 | 00:00:00 | 00:00:00 | |
| LZ4TU-5 | 2026-09-05 06:18:28 | 44.10158 | 22.80977 | 0° | 0km/h | 22239m | 7.5m/s | -54.1°C | 0.0% | 0hPa | 0V | 00:00:00 | 00:00:00 | 00:00:00 | |
| LZ4TU-5 | 2026-09-05 06:18:23 | 44.10160 | 22.80956 | 102° | 20km/h | 22208m | 6.0m/s | -54.0°C | 0.0% | 0hPa | 0V | 00:00:00 | 00:00:00 | 00:00:00 | |
| LZ4TU-5 | 2026-09-05 06:17:03 | 44.09886 | 22.80801 | 315° | 15km/h | 21700m | 6.7m/s | -53.2°C | 0.0% | 0hPa | 0V | 00:00:00 | 00:00:00 | 00:00:00 | |
| LZ4TU-5 | 2026-09-05 06:15:39 | 44.09976 | 22.80774 | 31° | 13km/h | 21177m | 5.3m/s | -53.8°C | 0.0% | 0hPa | 0V | 00:00:00 | 00:00:00 | 00:00:00 | |
| LZ4TU-5 | 2026-09-05 06:15:34 | 44.09976 | 22.80752 | 152° | 20km/h | 21145m | 5.9m/s | -54.3°C | 0.0% | 0hPa | 0V | 00:00:00 | 00:00:00 | 00:00:00 | |
| LZ4TU-5 | 2026-09-05 06:14:15 | 44.09910 | 22.80431 | 83° | 22km/h | 20672m | 6.1m/s | -56.4°C | 0.0% | 0hPa | 0V | 00:00:00 | 00:00:00 | 00:00:00 | |
| LZ4TU-5 | 2026-09-05 06:12:51 | 44.09761 | 22.80656 | 246° | 29km/h | 20192m | 5.7m/s | -55.7°C | 0.0% | 0hPa | 0V | 00:00:00 | 00:00:00 | 00:00:00 | |
| LZ4TU-5 | 2026-09-05 06:12:46 | 44.09766 | 22.80689 | 288° | 11km/h | 20165m | 6.2m/s | -55.8°C | 0.0% | 0hPa | 0V | 00:00:00 | 00:00:00 | 00:00:00 | |
| LZ4TU-5 | 2026-09-05 06:11:27 | 44.09756 | 22.80494 | 26° | 18km/h | 19702m | 5.9m/s | -57.5°C | 0.0% | 0hPa | 0V | 00:00:00 | 00:00:00 | 00:00:00 | |
| LZ4TU-5 | 2026-09-05 06:11:22 | 44.09740 | 22.80461 | 72° | 24km/h | 19675m | 4.9m/s | -57.3°C | 0.0% | 0hPa | 0V | 00:00:00 | 00:00:00 | 00:00:00 | |
| LZ4TU-5 | 2026-09-05 06:10:04 | 44.09857 | 22.80054 | 75° | 7km/h | 19246m | 5.9m/s | -57.7°C | 0.0% | 0hPa | 0V | 00:00:00 | 00:00:00 | 00:00:00 | |
| LZ4TU-5 | 2026-09-05 06:09:59 | 44.09848 | 22.80034 | 69° | 18km/h | 19219m | 5.2m/s | -57.7°C | 0% | 0hPa | 0V | 00:00:00 | 00:00:00 | 00:00:00 | |
| LZ4TU-5 | 2026-09-05 06:08:38 | 44.09751 | 22.79603 | 93° | 22km/h | 18756m | 5.0m/s | -58.0°C | 0.0% | 0hPa | 0V | 00:00:00 | 00:00:00 | 00:00:00 | |
| LZ4TU-5 | 2026-09-05 06:08:33 | 44.09757 | 22.79563 | 108° | 33km/h | 18727m | 6.0m/s | -58.2°C | 0.0% | 0hPa | 0V | 00:00:00 | 00:00:00 | 00:00:00 | |
| LZ4TU-5 | 2026-09-05 06:07:07 | 44.09869 | 22.78765 | 67° | 33km/h | 18211m | 5.2m/s | -60.1°C | 0.0% | 0hPa | 0V | 00:00:00 | 00:00:00 | 00:00:00 | |
| LZ4TU-5 | 2026-09-05 06:05:40 | 44.09785 | 22.77945 | 118° | 44km/h | 17633m | 6.7m/s | -59.1°C | 0.5% | 0hPa | 0V | 00:00:00 | 00:00:00 | 00:00:00 | |
| LZ4TU-5 | 2026-09-05 06:05:36 | 44.09812 | 22.77881 | 119° | 51km/h | 17607m | 6.6m/s | -59.1°C | 0.5% | 0hPa | 0V | 00:00:00 | 00:00:00 | 00:00:00 | |
| LZ4TU-5 | 2026-09-05 06:04:13 | 44.09780 | 22.76636 | 58° | 26km/h | 17109m | 4.4m/s | -59.1°C | 1.2% | 0hPa | 0V | 00:00:00 | 00:00:00 | 00:00:00 | |
| LZ4TU-5 | 2026-09-05 06:04:08 | 44.09771 | 22.76578 | 98° | 35km/h | 17083m | 5.0m/s | -59.2°C | 1.3% | 0hPa | 0V | 00:00:00 | 00:00:00 | 00:00:00 | |
| LZ4TU-5 | 2026-09-05 06:02:48 | 44.09620 | 22.75841 | 89° | 38km/h | 16633m | 5.9m/s | -59.6°C | 1.8% | 0hPa | 0V | 00:00:00 | 00:00:00 | 00:00:00 | |
| LZ4TU-5 | 2026-09-05 06:02:43 | 44.09605 | 22.75780 | 64° | 33km/h | 16601m | 7.2m/s | -59.5°C | 1.6% | 0hPa | 0V | 00:00:00 | 00:00:00 | 00:00:00 | |
| LZ4TU-5 | 2026-09-05 06:01:23 | 44.09716 | 22.74770 | 100° | 53km/h | 16121m | 3.9m/s | -60.4°C | 2.7% | 0hPa | 0V | 00:00:00 | 00:00:00 | 00:00:00 | |
| LZ4TU-5 | 2026-09-05 06:01:18 | 44.09721 | 22.74689 | 104° | 24km/h | 16095m | 6.7m/s | -60.9°C | 2.8% | 0hPa | 0V | 00:00:00 | 00:00:00 | 00:00:00 | |
| LZ4TU-5 | 2026-09-05 06:00:00 | 44.09765 | 22.73680 | 85° | 46km/h | 15667m | 4.2m/s | -61.9°C | 4.8% | 0hPa | 0V | 00:00:00 | 00:00:00 | 00:00:00 | |
| LZ4TU-5 | 2026-09-05 05:59:55 | 44.09768 | 22.73623 | 100° | 31km/h | 15641m | 4.1m/s | -61.8°C | 4.9% | 0hPa | 0V | 00:00:00 | 00:00:00 | 00:00:00 | |
| LZ4TU-5 | 2026-09-05 05:58:36 | 44.09775 | 22.72961 | 98° | 22km/h | 15233m | 6.0m/s | -61.2°C | 8.3% | 0hPa | 0V | 00:00:00 | 00:00:00 | 00:00:00 | |
| LZ4TU-5 | 2026-09-05 05:58:31 | 44.09785 | 22.72935 | 112° | 13km/h | 15207m | 5.1m/s | -61.1°C | 8.7% | 0hPa | 0V | 00:00:00 | 00:00:00 | 00:00:00 | |
| LZ4TU-5 | 2026-09-05 05:57:11 | 44.10123 | 22.71927 | 110° | 58km/h | 14725m | 5.6m/s | -62.4°C | 15.7% | 0hPa | 0V | 00:00:00 | 00:00:00 | 00:00:00 | |
| LZ4TU-5 | 2026-09-05 05:57:06 | 44.10148 | 22.71851 | 122° | 47km/h | 14696m | 4.1m/s | -62.5°C | 16.3% | 0hPa | 0V | 00:00:00 | 00:00:00 | 00:00:00 | |
| LZ4TU-5 | 2026-09-05 05:55:47 | 44.10296 | 22.70796 | 112° | 58km/h | 14216m | 5.9m/s | -65.3°C | 26.3% | 0hPa | 0V | 00:00:00 | 00:00:00 | 00:00:00 | |
| LZ4TU-5 | 2026-09-05 05:55:42 | 44.10312 | 22.70722 | 108° | 27km/h | 14188m | 5.2m/s | -65.7°C | 26.8% | 0hPa | 0V | 00:00:00 | 00:00:00 | 00:00:00 | |
| LZ4TU-5 | 2026-09-05 05:54:22 | 44.10612 | 22.70038 | 131° | 42km/h | 13711m | 4.6m/s | -64.4°C | 29.7% | 0hPa | 0V | 00:00:00 | 00:00:00 | 00:00:00 | |
| LZ4TU-5 | 2026-09-05 05:54:18 | 44.10646 | 22.70005 | 160° | 47km/h | 13689m | 6.4m/s | -64.5°C | 30.0% | 0hPa | 0V | 00:00:00 | 00:00:00 | 00:00:00 | |
| LZ4TU-5 | 2026-09-05 05:52:58 | 44.11320 | 22.69119 | 136° | 49km/h | 13238m | 5.1m/s | -63.1°C | 30.1% | 0hPa | 0V | 00:00:00 | 00:00:00 | 00:00:00 | |
| LZ4TU-5 | 2026-09-05 05:52:54 | 44.11358 | 22.69066 | 142° | 55km/h | 13211m | 7.2m/s | -62.9°C | 0% | 0hPa | 0V | 00:00:00 | 00:00:00 | 00:00:00 | |
| LZ4TU-5 | 2026-09-05 05:51:34 | 44.12070 | 22.68180 | 131° | 31km/h | 12689m | 6.5m/s | -59.0°C | 26.6% | 0hPa | 0V | 00:00:00 | 00:00:00 | 00:00:00 | |
| LZ4TU-5 | 2026-09-05 05:51:29 | 44.12090 | 22.68128 | 136° | 46km/h | 12658m | 5.7m/s | -58.8°C | 26.8% | 0hPa | 0V | 00:00:00 | 00:00:00 | 00:00:00 | |
| LZ4TU-5 | 2026-09-05 05:50:08 | 44.12619 | 22.67367 | 119° | 33km/h | 12194m | 4.1m/s | -55.6°C | 26.7% | 0hPa | 0V | 00:00:00 | 00:00:00 | 00:00:00 | |
| LZ4TU-5 | 2026-09-05 05:50:04 | 44.12630 | 22.67326 | 125° | 38km/h | 12174m | 5.3m/s | -55.4°C | 26.5% | 0hPa | 0V | 00:00:00 | 00:00:00 | 00:00:00 | |
| LZ4TU-5 | 2026-09-05 05:48:43 | 44.13184 | 22.66437 | 111° | 47km/h | 11707m | 6.0m/s | -51.6°C | 21.8% | 0hPa | 0V | 00:00:00 | 00:00:00 | 00:00:00 | |
| LZ4TU-5 | 2026-09-05 05:48:38 | 44.13216 | 22.66382 | 161° | 35km/h | 11675m | 6.1m/s | -51.3°C | 0% | 0hPa | 0V | 00:00:00 | 00:00:00 | 00:00:00 | |
| LZ4TU-5 | 2026-09-05 05:47:12 | 44.13790 | 22.65490 | 127° | 42km/h | 11176m | 4.9m/s | -47.6°C | 19.7% | 0hPa | 0V | 00:00:00 | 00:00:00 | 00:00:00 | |
| LZ4TU-5 | 2026-09-05 05:47:08 | 44.13814 | 22.65442 | 138° | 40km/h | 11154m | 6.2m/s | -47.2°C | 19.5% | 0hPa | 0V | 00:00:00 | 00:00:00 | 00:00:00 | |
| LZ4TU-5 | 2026-09-05 05:45:46 | 44.14386 | 22.64580 | 157° | 53km/h | 10742m | 4.2m/s | -43.8°C | 16.7% | 0hPa | 0V | 00:00:00 | 00:00:00 | 00:00:00 | |
| LZ4TU-5 | 2026-09-05 05:45:41 | 44.14426 | 22.64537 | 94° | 44km/h | 10709m | 8.4m/s | -43.5°C | 16.3% | 0hPa | 0V | 00:00:00 | 00:00:00 | 00:00:00 | |
| LZ4TU-5 | 2026-09-05 05:44:21 | 44.14870 | 22.63590 | 111° | 35km/h | 10239m | 5.3m/s | -39.4°C | 12.4% | 0hPa | 0V | 00:00:00 | 00:00:00 | 00:00:00 | |
| LZ4TU-5 | 2026-09-05 05:44:16 | 44.14908 | 22.63556 | 141° | 40km/h | 10206m | 8.2m/s | -39.1°C | 12.2% | 0hPa | 0V | 00:00:00 | 00:00:00 | 00:00:00 | |
| LZ4TU-5 | 2026-09-05 05:42:57 | 44.15420 | 22.62693 | 126° | 22km/h | 9767m | 4.8m/s | -35.4°C | 9.8% | 0hPa | 0V | 00:00:00 | 00:00:00 | 00:00:00 | |
| LZ4TU-5 | 2026-09-05 05:42:52 | 44.15432 | 22.62644 | 113° | 38km/h | 9729m | 8.3m/s | -35.1°C | 9.7% | 0hPa | 0V | 00:00:00 | 00:00:00 | 00:00:00 | |
| LZ4TU-5 | 2026-09-05 05:41:33 | 44.15775 | 22.61719 | 106° | 26km/h | 9242m | 5.4m/s | -31.6°C | 10.6% | 0hPa | 0V | 00:00:00 | 00:00:00 | 00:00:00 | |
| LZ4TU-5 | 2026-09-05 05:41:28 | 44.15800 | 22.61675 | 150° | 44km/h | 9218m | 4.2m/s | -31.5°C | 10.7% | 0hPa | 0V | 00:00:00 | 00:00:00 | 00:00:00 | |
| LZ4TU-5 | 2026-09-05 05:40:00 | 44.16257 | 22.60832 | 139° | 29km/h | 8710m | 5.5m/s | -28.0°C | 11.2% | 0hPa | 0V | 00:00:00 | 00:00:00 | 00:00:00 | |
| LZ4TU-5 | 2026-09-05 05:39:56 | 44.16276 | 22.60815 | 129° | 29km/h | 8690m | 5.1m/s | -27.8°C | 11.1% | 0hPa | 0V | 00:00:00 | 00:00:00 | 00:00:00 | |
| LZ4TU-5 | 2026-09-05 05:38:36 | 44.16810 | 22.60179 | 150° | 53km/h | 8230m | 7.2m/s | -25.0°C | 14.5% | 0hPa | 0V | 00:00:00 | 00:00:00 | 00:00:00 | |
| LZ4TU-5 | 2026-09-05 05:38:31 | 44.16846 | 22.60152 | 132° | 29km/h | 8198m | 5.3m/s | -24.7°C | 14.4% | 0hPa | 0V | 00:00:00 | 00:00:00 | 00:00:00 | |
| LZ4TU-5 | 2026-09-05 05:38:26 | 44.16895 | 22.60094 | 150° | 40km/h | 8170m | 5.5m/s | -24.5°C | 14.3% | 0hPa | 0V | 00:00:00 | 00:00:00 | 00:00:00 | |
| LZ4TU-5 | 2026-09-05 05:37:07 | 44.17503 | 22.59435 | 130° | 37km/h | 7687m | 3.7m/s | -20.6°C | 13.3% | 0hPa | 0V | 00:00:00 | 00:00:00 | 00:00:00 | |
| LZ4TU-5 | 2026-09-05 05:37:03 | 44.17531 | 22.59410 | 153° | 42km/h | 7670m | 3.5m/s | -20.5°C | 12.9% | 0hPa | 0V | 00:00:00 | 00:00:00 | 00:00:00 | |
| LZ4TU-5 | 2026-09-05 05:35:51 | 44.18084 | 22.58596 | 115° | 53km/h | 7282m | 5.4m/s | -18.2°C | 14.2% | 0hPa | 0V | 00:00:00 | 00:00:00 | 00:00:00 | |
| LZ4TU-5 | 2026-09-05 05:35:46 | 44.18101 | 22.58509 | 117° | 49km/h | 7264m | 5.0m/s | -18.1°C | 13.7% | 0hPa | 0V | 00:00:00 | 00:00:00 | 00:00:00 | |
| LZ4TU-5 | 2026-09-05 05:34:31 | 44.18527 | 22.57603 | 148° | 55km/h | 6877m | 3.0m/s | -14.4°C | 11.1% | 0hPa | 0V | 00:00:00 | 00:00:00 | 00:00:00 | |
| LZ4TU-5 | 2026-09-05 05:34:26 | 44.18577 | 22.57522 | 114° | 49km/h | 6852m | 5.9m/s | -14.2°C | 11.0% | 0hPa | 0V | 00:00:00 | 00:00:00 | 00:00:00 | |
| LZ4TU-5 | 2026-09-05 05:33:18 | 44.18933 | 22.56882 | 188° | 33km/h | 6445m | 4.7m/s | -12.8°C | 18.5% | 0hPa | 0V | 00:00:00 | 00:00:00 | 00:00:00 | |
| LZ4TU-5 | 2026-09-05 05:33:13 | 44.18953 | 22.56864 | 101° | 20km/h | 6413m | 6.9m/s | -12.6°C | 18.5% | 0hPa | 0V | 00:00:00 | 00:00:00 | 00:00:00 | |
| LZ4TU-5 | 2026-09-05 05:32:05 | 44.19433 | 22.56598 | 165° | 47km/h | 6034m | 6.6m/s | -10.9°C | 24.4% | 0hPa | 0V | 00:00:00 | 00:00:00 | 00:00:00 | |
| LZ4TU-5 | 2026-09-05 05:32:00 | 44.19468 | 22.56617 | 156° | 7km/h | 6006m | 4.5m/s | -10.7°C | 0% | 0hPa | 0V | 00:00:00 | 00:00:00 | 00:00:00 | |
| LZ4TU-5 | 2026-09-05 05:30:49 | 44.20067 | 22.56514 | 182° | 44km/h | 5587m | 8.3m/s | -8.4°C | 38.0% | 0hPa | 0V | 00:00:00 | 00:00:00 | 00:00:00 | |
| LZ4TU-5 | 2026-09-05 05:30:45 | 44.20111 | 22.56526 | 185° | 26km/h | 5563m | 7.3m/s | -8.3°C | 39.7% | 0hPa | 0V | 00:00:00 | 00:00:00 | 00:00:00 | |
| LZ4TU-5 | 2026-09-05 05:29:36 | 44.20591 | 22.56455 | 208° | 33km/h | 5169m | 5.8m/s | -5.2°C | 36.2% | 0hPa | 0V | 00:00:00 | 00:00:00 | 00:00:00 | |
| LZ4TU-5 | 2026-09-05 05:29:31 | 44.20613 | 22.56450 | 147° | 44km/h | 5140m | 6.5m/s | -5.0°C | 0% | 0hPa | 0V | 00:00:00 | 00:00:00 | 00:00:00 | |
| LZ4TU-5 | 2026-09-05 05:28:10 | 44.21237 | 22.56406 | 154° | 44km/h | 4663m | 4.9m/s | -2.0°C | 49.3% | 0hPa | 0V | 00:00:00 | 00:00:00 | 00:00:00 | |
| LZ4TU-5 | 2026-09-05 05:27:04 | 44.21772 | 22.56334 | 202° | 22km/h | 4274m | 5.7m/s | 1.6°C | 38.3% | 0hPa | 0V | 00:00:00 | 00:00:00 | 00:00:00 | |
| LZ4TU-5 | 2026-09-05 05:26:59 | 44.21799 | 22.56309 | 164° | 37km/h | 4244m | 5.2m/s | 1.9°C | 37.5% | 0hPa | 0V | 00:00:00 | 00:00:00 | 00:00:00 | |
| LZ4TU-5 | 2026-09-05 05:25:57 | 44.22149 | 22.56198 | 138° | 37km/h | 3872m | 6.3m/s | 4.2°C | 45.3% | 0hPa | 0V | 00:00:00 | 00:00:00 | 00:00:00 | |
| LZ4TU-5 | 2026-09-05 05:25:52 | 44.22190 | 22.56180 | 208° | 29km/h | 3844m | 5.6m/s | 4.4°C | 45.6% | 0hPa | 0V | 00:00:00 | 00:00:00 | 00:00:00 | |
| LZ4TU-5 | 2026-09-05 05:24:51 | 44.22382 | 22.56015 | 157° | 33km/h | 3488m | 5.2m/s | 7.3°C | 41.9% | 0hPa | 0V | 00:00:00 | 00:00:00 | 00:00:00 | |
| LZ4TU-5 | 2026-09-05 05:24:46 | 44.22401 | 22.56021 | 237° | 15km/h | 3457m | 6.3m/s | 7.5°C | 40.6% | 0hPa | 0V | 00:00:00 | 00:00:00 | 00:00:00 | |
| LZ4TU-5 | 2026-09-05 05:23:51 | 44.22636 | 22.55753 | 135° | 26km/h | 3123m | 6.1m/s | 10.2°C | 37.0% | 0hPa | 0V | 00:00:00 | 00:00:00 | 00:00:00 | |
| LZ4TU-5 | 2026-09-05 05:23:46 | 44.22650 | 22.55745 | 192° | 20km/h | 3092m | 4.9m/s | 10.5°C | 0% | 0hPa | 0V | 00:00:00 | 00:00:00 | 00:00:00 | |
| LZ4TU-5 | 2026-09-05 05:22:52 | 44.22894 | 22.55494 | 161° | 27km/h | 2763m | 6.2m/s | 12.6°C | 25.3% | 0hPa | 0V | 00:00:00 | 00:00:00 | 00:00:00 | |
| LZ4TU-5 | 2026-09-05 05:22:47 | 44.22914 | 22.55472 | 135° | 29km/h | 2732m | 6.0m/s | 12.6°C | 28.8% | 0hPa | 0V | 00:00:00 | 00:00:00 | 00:00:00 | |
| LZ4TU-5 | 2026-09-05 05:21:52 | 44.23062 | 22.55206 | 125° | 24km/h | 2405m | 6.2m/s | 14.5°C | 30.3% | 0hPa | 0V | 00:00:00 | 00:00:00 | 00:00:00 | |
| LZ4TU-5 | 2026-09-05 05:21:47 | 44.23077 | 22.55177 | 134° | 26km/h | 2373m | 6.6m/s | 14.6°C | 0% | 0hPa | 0V | 00:00:00 | 00:00:00 | 00:00:00 | |
| LZ4TU-5 | 2026-09-05 05:20:49 | 44.23337 | 22.54892 | 129° | 22km/h | 2035m | 6.4m/s | 17.6°C | 28.1% | 0hPa | 0V | 00:00:00 | 00:00:00 | 00:00:00 | |
| LZ4TU-5 | 2026-09-05 05:20:44 | 44.23363 | 22.54869 | 150° | 18km/h | 2006m | 6.3m/s | 17.9°C | 27.2% | 0hPa | 0V | 00:00:00 | 00:00:00 | 00:00:00 | |
| LZ4TU-5 | 2026-09-05 05:19:49 | 44.23640 | 22.54593 | 123° | 24km/h | 1690m | 5.9m/s | 17.1°C | 27.9% | 0hPa | 0V | 00:00:00 | 00:00:00 | 00:00:00 | |
| LZ4TU-5 | 2026-09-05 05:19:45 | 44.23652 | 22.54573 | 99° | 13km/h | 1668m | 5.8m/s | 17.2°C | 28.1% | 0hPa | 0V | 00:00:00 | 00:00:00 | 00:00:00 | |
| LZ4TU-5 | 2026-09-05 05:18:51 | 44.23760 | 22.54397 | 178° | 11km/h | 1345m | 6.1m/s | 18.0°C | 44.2% | 0hPa | 0V | 00:00:00 | 00:00:00 | 00:00:00 | |
| LZ4TU-5 | 2026-09-05 05:18:46 | 44.23761 | 22.54386 | 139° | 9km/h | 1316m | 6.4m/s | 18.3°C | 43.8% | 0hPa | 0V | 00:00:00 | 00:00:00 | 00:00:00 | |
| LZ4TU-5 | 2026-09-05 05:17:50 | 44.23861 | 22.54236 | 165° | 11km/h | 976m | 5.8m/s | 21.2°C | 40.4% | 0hPa | 0V | 00:00:00 | 00:00:00 | 00:00:00 | |
| LZ4TU-5 | 2026-09-05 05:17:46 | 44.23866 | 22.54222 | 124° | 20km/h | 954m | 5.8m/s | 21.4°C | 40.2% | 0hPa | 0V | 00:00:00 | 00:00:00 | 00:00:00 | |
| LZ4TU-5 | 2026-09-05 05:17:41 | 44.23878 | 22.54206 | 93° | 15km/h | 925m | 6.2m/s | 21.6°C | 39.8% | 0hPa | 0V | 00:00:00 | 00:00:00 | 00:00:00 | |
| LZ4TU-5 | 2026-09-05 05:17:36 | 44.23887 | 22.54182 | 115° | 9km/h | 897m | 5.6m/s | 21.9°C | 39.5% | 0hPa | 0V | 00:00:00 | 00:00:00 | 00:00:00 | |
| LZ4TU-5 | 2026-09-05 05:17:32 | 44.23894 | 22.54159 | 136° | 24km/h | 872m | 5.7m/s | 22.1°C | 39.2% | 0hPa | 0V | 00:00:00 | 00:00:00 | 00:00:00 | |
| LZ4TU-5 | 2026-09-05 05:17:28 | 44.23903 | 22.54145 | 74° | 13km/h | 849m | 5.9m/s | 22.3°C | 38.9% | 0hPa | 0V | 00:00:00 | 00:00:00 | 00:00:00 | |
| LZ4TU-5 | 2026-09-05 05:17:22 | 44.23911 | 22.54112 | 119° | 15km/h | 814m | 6.8m/s | 22.6°C | 0% | 0hPa | 0V | 00:00:00 | 00:00:00 | 00:00:00 |